Time;durP1;ratioP1;P1;durP2;ratioP2;P2;SDS_P1;SDS_P2;PMS_P1;PMS_P2;Temp;Humidity;BMP_temperature;BMP_pressure;BME280_temperature;BME280_humidity;BME280_pressure;Samples;Min_cycle;Max_cycle;Signal;HPM_P1;HPM_P2
2022/09/10 00:01:49;;;;;;;6.10;5.75;;;;;;;14.78;100.00;100527.97;6034875;23;20026;-73
2022/09/10 00:04:17;;;;;;;6.53;6.13;;;;;;;14.71;100.00;100528.44;6028483;23;20030;-71
2022/09/10 00:06:44;;;;;;;6.63;6.00;;;;;;;14.72;100.00;100530.09;6046382;23;20126;-72
2022/09/10 00:09:11;;;;;;;5.07;4.88;;;;;;;14.74;100.00;100541.41;6054552;23;20080;-72
2022/09/10 00:11:39;;;;;;;6.95;5.03;;;;;;;14.72;100.00;100545.13;6052416;23;20094;-74
2022/09/10 00:14:10;;;;;;;5.32;5.10;;;;;;;14.75;100.00;100540.47;6046039;23;20022;-71
2022/09/10 00:16:37;;;;;;;6.32;6.03;;;;;;;13.73;100.00;100387.56;6039679;23;20102;-74
2022/09/10 00:19:03;;;;;;;5.13;4.93;;;;;;;14.75;100.00;100542.22;6062427;23;20021;-71
2022/09/10 00:21:30;;;;;;;4.95;4.75;;;;;;;14.62;100.00;100528.25;6053960;23;20583;-75
2022/09/10 00:23:57;;;;;;;5.00;4.80;;;;;;;14.69;100.00;100543.53;6050303;23;20048;-73
2022/09/10 00:26:26;;;;;;;4.90;4.70;;;;;;;14.66;100.00;100549.03;6049096;23;20561;-74
2022/09/10 00:28:55;;;;;;;5.35;5.15;;;;;;;14.67;100.00;100550.75;6058175;23;20025;-74
2022/09/10 00:31:22;;;;;;;4.80;4.60;;;;;;;13.40;100.00;100353.88;6018722;23;20049;-73
2022/09/10 00:33:51;;;;;;;6.28;5.65;;;;;;;14.78;100.00;100544.66;6050070;23;20523;-74
2022/09/10 00:36:23;;;;;;;5.25;5.05;;;;;;;13.55;100.00;100350.16;6053116;23;20022;-70
2022/09/10 00:38:52;;;;;;;4.70;4.50;;;;;;;14.91;100.00;100544.59;6024320;23;20018;-73
2022/09/10 00:41:21;;;;;;;4.88;4.68;;;;;;;14.87;100.00;100530.78;6056550;23;20024;-72
2022/09/10 00:44:01;;;;;;;6.10;5.80;;;;;;;15.01;100.00;100539.50;6044707;23;20030;-70
2022/09/10 00:46:37;;;;;;;5.10;4.90;;;;;;;15.05;100.00;100557.66;6049832;23;20500;-74
2022/09/10 00:49:45;;;;;;;6.63;6.15;;;;;;;15.08;100.00;100533.66;6054668;23;20022;-72
2022/09/10 00:52:12;;;;;;;5.10;4.90;;;;;;;15.08;100.00;100536.28;5966029;23;20577;-70
2022/09/10 00:54:41;;;;;;;6.60;6.22;;;;;;;15.10;100.00;100530.91;6015520;23;20037;-72
2022/09/10 00:57:15;;;;;;;5.40;5.10;;;;;;;15.12;100.00;100527.19;6045384;23;20077;-71
2022/09/10 00:59:46;;;;;;;6.30;5.90;;;;;;;13.82;100.00;100309.59;6033397;23;20041;-73
2022/09/10 01:02:13;;;;;;;5.53;5.00;;;;;;;15.14;100.00;100530.56;6041052;23;20045;-70
2022/09/10 01:04:41;;;;;;;6.25;5.95;;;;;;;15.08;100.00;100509.88;6044692;23;20022;-72
2022/09/10 01:07:10;;;;;;;5.00;4.80;;;;;;;15.04;100.00;100503.13;6066001;23;20475;-71
2022/09/10 01:09:38;;;;;;;6.05;5.75;;;;;;;15.23;100.00;100521.09;6037353;23;20030;-75
2022/09/10 01:12:20;;;;;;;4.97;4.78;;;;;;;15.24;100.00;100522.78;6056257;23;20034;-70
2022/09/10 01:15:28;;;;;;;6.20;5.90;;;;;;;15.22;100.00;100522.06;6054090;23;20503;-70
2022/09/10 01:18:09;;;;;;;4.90;4.70;;;;;;;15.19;100.00;100513.50;6038131;23;20010;-72
2022/09/10 01:20:50;;;;;;;5.10;4.90;;;;;;;15.26;100.00;100520.88;6036084;23;20410;-71
2022/09/10 01:23:36;;;;;;;5.32;5.05;;;;;;;15.28;100.00;100520.75;6061206;23;20019;-71
2022/09/10 01:26:15;;;;;;;5.93;5.03;;;;;;;15.28;100.00;100520.75;6060015;23;20585;-72
2022/09/10 01:28:41;;;;;;;5.97;5.68;;;;;;;15.26;100.00;100520.03;6048193;23;20023;-73
2022/09/10 01:31:32;;;;;;;4.90;4.70;;;;;;;15.29;100.00;100522.44;6063996;23;20412;-72
2022/09/10 01:34:04;;;;;;;5.22;4.88;;;;;;;15.20;100.00;100502.81;6057817;23;20081;-71
2022/09/10 01:36:37;;;;;;;5.60;5.30;;;;;;;15.30;100.00;100519.69;6057598;23;20046;-73
2022/09/10 01:39:04;;;;;;;5.22;4.93;;;;;;;14.16;100.00;100340.47;6051659;23;20034;-72
2022/09/10 01:41:30;;;;;;;4.95;4.75;;;;;;;15.23;100.00;100496.47;6043695;23;20177;-73
2022/09/10 01:43:57;;;;;;;5.53;5.13;;;;;;;15.29;100.00;100517.97;6062148;23;20030;-71
2022/09/10 01:46:42;;;;;;;5.07;4.88;;;;;;;15.28;100.00;100516.31;6063841;23;20092;-72
2022/09/10 01:49:44;;;;;;;4.90;4.70;;;;;;;15.19;100.00;100501.13;6053449;23;20096;-72
2022/09/10 01:52:35;;;;;;;5.00;4.80;;;;;;;15.23;100.00;100515.81;5990240;23;20026;-71
2022/09/10 01:55:22;;;;;;;4.93;4.72;;;;;;;15.24;100.00;100514.84;6064497;23;20025;-72
2022/09/10 01:58:18;;;;;;;5.20;4.90;;;;;;;15.23;100.00;100509.69;6039737;23;20038;-72
2022/09/10 02:00:53;;;;;;;6.13;5.82;;;;;;;15.19;100.00;100511.69;6053843;23;20424;-70
2022/09/10 02:03:23;;;;;;;4.95;4.75;;;;;;;14.71;100.00;100435.97;6047163;23;20014;-73
2022/09/10 02:05:52;;;;;;;6.57;6.18;;;;;;;15.10;100.00;100493.91;6053444;23;20304;-72
2022/09/10 02:08:25;;;;;;;4.93;4.72;;;;;;;15.19;100.00;100505.56;6048379;23;20022;-73
2022/09/10 02:10:55;;;;;;;5.13;4.93;;;;;;;15.20;100.00;100507.28;6052206;23;20307;-72
2022/09/10 02:13:22;;;;;;;4.90;4.70;;;;;;;15.20;100.00;100507.28;6053336;23;20388;-71
2022/09/10 02:15:51;;;;;;;5.07;4.78;;;;;;;14.58;100.00;100405.28;6049959;23;20763;-72
2022/09/10 02:18:19;;;;;;;6.10;4.90;;;;;;;15.19;100.00;100505.56;6054521;23;20162;-74
2022/09/10 02:20:49;;;;;;;6.13;5.82;;;;;;;15.05;100.00;100477.53;6057366;23;20137;-71
2022/09/10 02:23:18;;;;;;;5.68;5.28;;;;;;;15.20;100.00;100496.72;6043263;23;20099;-72
2022/09/10 02:25:47;;;;;;;6.72;6.20;;;;;;;15.19;100.00;100487.06;6055343;23;20006;-71
2022/09/10 02:28:14;;;;;;;5.30;5.00;;;;;;;14.96;100.00;100460.56;6043062;23;20061;-73
2022/09/10 02:30:40;;;;;;;6.88;6.57;;;;;;;13.38;100.00;100189.72;6064225;23;20043;-74
2022/09/10 02:33:06;;;;;;;5.10;4.82;;;;;;;15.21;100.00;100493.09;6059386;23;20026;-73
2022/09/10 02:35:33;;;;;;;6.15;5.45;;;;;;;15.21;100.00;100496.56;6054074;23;20733;-72
2022/09/10 02:38:00;;;;;;;5.45;5.05;;;;;;;15.14;100.00;100485.63;6063015;23;20081;-74
2022/09/10 02:40:28;;;;;;;4.90;4.70;;;;;;;15.08;100.00;100472.88;6049155;23;20022;-72
2022/09/10 02:42:54;;;;;;;5.88;5.38;;;;;;;15.28;100.00;100494.31;6057078;23;20372;-73
2022/09/10 02:45:21;;;;;;;6.65;4.70;;;;;;;15.27;100.00;100503.19;6053374;23;20100;-72
2022/09/10 02:47:47;;;;;;;6.63;6.32;;;;;;;14.39;100.00;100347.66;6053500;23;20017;-74
2022/09/10 02:50:14;;;;;;;5.07;4.82;;;;;;;15.31;100.00;100494.91;6057579;23;20641;-73
2022/09/10 02:52:41;;;;;;;6.72;6.40;;;;;;;14.37;100.00;100342.50;6051472;23;20027;-71
2022/09/10 02:55:08;;;;;;;5.35;5.05;;;;;;;15.20;100.00;100480.84;6057577;23;20034;-72
2022/09/10 02:57:34;;;;;;;6.82;6.43;;;;;;;15.29;100.00;100498.63;6056852;23;20116;-72
2022/09/10 03:00:01;;;;;;;13.75;4.85;;;;;;;15.30;100.00;100508.28;6059584;23;20353;-70
2022/09/10 03:02:28;;;;;;;5.40;5.10;;;;;;;13.84;100.00;100261.03;6052397;23;20010;-73
2022/09/10 03:04:54;;;;;;;5.60;5.30;;;;;;;14.07;100.00;100298.09;6044028;23;20031;-73
2022/09/10 03:07:20;;;;;;;6.85;6.55;;;;;;;13.09;100.00;100159.22;6055078;23;20080;-71
2022/09/10 03:09:48;;;;;;;5.10;4.90;;;;;;;15.31;100.00;100499.38;6055747;23;20034;-71
2022/09/10 03:12:15;;;;;;;5.32;5.03;;;;;;;15.32;100.00;100504.53;6053628;23;20022;-73
2022/09/10 03:14:42;;;;;;;6.47;6.07;;;;;;;15.29;100.00;100486.25;6039700;23;20023;-73
2022/09/10 03:17:08;;;;;;;5.10;4.90;;;;;;;15.32;100.00;100501.06;6057262;23;20026;-73
2022/09/10 03:19:35;;;;;;;6.03;5.72;;;;;;;15.32;100.00;100493.97;6044699;23;20408;-73
2022/09/10 03:22:02;;;;;;;5.22;4.93;;;;;;;15.20;100.00;100470.28;6056797;23;20123;-71
2022/09/10 03:24:28;;;;;;;5.38;5.00;;;;;;;15.34;100.00;100499.97;6052842;23;20080;-73
2022/09/10 03:26:55;;;;;;;9.00;5.50;;;;;;;15.34;100.00;100501.78;6059157;23;20716;-71
2022/09/10 03:29:23;;;;;;;4.88;4.68;;;;;;;15.30;100.00;100495.88;6062975;23;20589;-71
2022/09/10 03:31:50;;;;;;;5.97;5.53;;;;;;;13.87;100.00;100260.84;6058428;23;20034;-73
2022/09/10 03:34:17;;;;;;;4.80;4.60;;;;;;;15.15;100.00;100465.31;6055802;23;20097;-71
2022/09/10 03:36:47;;;;;;;6.82;6.50;;;;;;;15.30;100.00;100492.41;6056836;23;20026;-73
2022/09/10 03:39:15;;;;;;;5.20;5.00;;;;;;;15.30;100.00;100490.59;6039954;23;20191;-72
2022/09/10 03:41:41;;;;;;;6.43;6.13;;;;;;;15.29;100.00;100490.72;6045433;23;20023;-73
2022/09/10 03:44:08;;;;;;;5.00;4.80;;;;;;;15.28;100.00;100494.31;6037148;23;20026;-72
2022/09/10 03:46:34;;;;;;;5.10;4.90;;;;;;;15.30;100.00;100495.06;6057450;23;20042;-73
2022/09/10 03:49:01;;;;;;;5.50;5.20;;;;;;;15.31;100.00;100488.78;6042972;23;20420;-73
2022/09/10 03:51:28;;;;;;;5.15;4.93;;;;;;;15.29;100.00;100496.84;6061998;23;20398;-73
2022/09/10 03:53:54;;;;;;;5.60;5.30;;;;;;;15.15;100.00;100479.38;6026428;23;20081;-72
2022/09/10 03:56:21;;;;;;;4.88;4.68;;;;;;;15.28;100.00;100491.69;6060761;23;20037;-71
2022/09/10 03:58:50;;;;;;;6.35;6.05;;;;;;;13.34;100.00;100182.03;6057893;23;20026;-71
2022/09/10 04:01:18;;;;;;;5.20;4.90;;;;;;;14.18;100.00;100323.72;6053238;23;20039;-73
2022/09/10 04:03:46;;;;;;;6.22;5.93;;;;;;;15.28;100.00;100503.09;6049372;23;20491;-72
2022/09/10 04:06:14;;;;;;;5.30;4.90;;;;;;;15.28;100.00;100505.75;6034741;23;20026;-72
2022/09/10 04:08:44;;;;;;;6.57;6.28;;;;;;;15.27;100.00;100525.19;6044043;23;20162;-71
2022/09/10 04:11:10;;;;;;;5.10;4.90;;;;;;;15.28;100.00;100505.75;6053064;23;20513;-73
2022/09/10 04:13:37;;;;;;;5.07;4.88;;;;;;;15.27;100.00;100498.75;6053268;23;20076;-72
2022/09/10 04:16:03;;;;;;;5.22;4.93;;;;;;;15.25;100.00;100500.66;6050517;23;20022;-73
2022/09/10 04:18:33;;;;;;;5.30;5.00;;;;;;;15.27;100.00;100513.78;6047085;23;20010;-73
2022/09/10 04:20:59;;;;;;;5.93;4.72;;;;;;;15.23;100.00;100491.16;6059293;23;20034;-71
2022/09/10 04:23:26;;;;;;;4.80;4.60;;;;;;;15.27;100.00;100496.09;6064124;23;20018;-71
2022/09/10 04:25:52;;;;;;;5.78;5.47;;;;;;;15.25;100.00;100492.72;6057198;23;20691;-71
2022/09/10 04:28:18;;;;;;;5.50;5.15;;;;;;;15.25;100.00;100489.25;6039262;23;20277;-73
2022/09/10 04:30:45;;;;;;;6.45;6.13;;;;;;;14.95;100.00;100450.94;6019181;23;20085;-71
2022/09/10 04:33:12;;;;;;;5.15;4.85;;;;;;;13.99;100.00;100295.16;6013769;23;20303;-73
2022/09/10 04:35:39;;;;;;;7.25;6.53;;;;;;;15.21;100.00;100503.66;6021424;23;20011;-73
2022/09/10 04:38:06;;;;;;;4.93;4.72;;;;;;;15.18;100.00;100499.47;6019430;23;20027;-74
2022/09/10 04:40:33;;;;;;;5.63;5.30;;;;;;;15.18;100.00;100503.91;6014110;23;20015;-73
2022/09/10 04:43:00;;;;;;;5.55;4.90;;;;;;;15.14;100.00;100504.13;6015108;23;20088;-72
2022/09/10 04:45:27;;;;;;;5.28;5.00;;;;;;;15.05;100.00;100488.09;6027036;23;20027;-71
2022/09/10 04:47:54;;;;;;;5.35;4.95;;;;;;;13.82;100.00;100305.16;6007265;23;20482;-70
2022/09/10 04:50:21;;;;;;;4.80;4.60;;;;;;;14.76;100.00;100443.56;6017039;23;20243;-71
2022/09/10 04:52:48;;;;;;;6.70;6.30;;;;;;;15.06;100.00;100500.38;6021197;23;20205;-73
2022/09/10 04:55:14;;;;;;;5.00;4.75;;;;;;;15.04;100.00;100497.84;6017999;23;20015;-74
2022/09/10 04:57:41;;;;;;;6.65;6.35;;;;;;;14.53;100.00;100414.38;6024500;23;20038;-71
2022/09/10 05:00:09;;;;;;;5.60;5.25;;;;;;;14.88;100.00;100471.69;6027253;23;20030;-71
2022/09/10 05:02:36;;;;;;;5.80;5.50;;;;;;;14.97;100.00;100483.38;6016086;23;20011;-72
2022/09/10 05:05:03;;;;;;;5.10;4.80;;;;;;;14.93;100.00;100480.16;6013016;23;20027;-72
2022/09/10 05:07:29;;;;;;;4.88;4.68;;;;;;;15.06;100.00;100493.28;6026011;23;20089;-71
2022/09/10 05:09:56;;;;;;;5.30;5.00;;;;;;;15.06;100.00;100501.22;6009052;23;20045;-71
2022/09/10 05:12:23;;;;;;;7.50;5.43;;;;;;;14.04;100.00;100322.91;6027001;23;20023;-72
2022/09/10 05:14:49;;;;;;;9.93;6.65;;;;;;;14.93;100.00;100476.63;6016531;23;20050;-71
2022/09/10 05:17:15;;;;;;;5.25;4.95;;;;;;;15.09;100.00;100497.47;6027881;23;20571;-71
2022/09/10 05:19:42;;;;;;;7.45;7.05;;;;;;;15.10;100.00;100499.19;6013328;23;20097;-72
2022/09/10 05:22:08;;;;;;;5.13;4.93;;;;;;;15.15;100.00;100504.97;6030928;23;20030;-71
2022/09/10 05:24:35;;;;;;;6.57;6.18;;;;;;;15.20;100.00;100507.28;6027517;23;20030;-71
2022/09/10 05:27:01;;;;;;;5.15;4.85;;;;;;;14.31;100.00;100354.38;6001089;23;20015;-71
2022/09/10 05:29:28;;;;;;;5.00;4.80;;;;;;;15.18;100.00;100501.25;6027028;23;20023;-70
2022/09/10 05:31:54;;;;;;;5.35;5.05;;;;;;;15.24;100.00;100509.56;5994310;23;20027;-72
2022/09/10 05:34:21;;;;;;;5.25;4.90;;;;;;;15.10;100.00;100476.22;5980253;23;20032;-70
2022/09/10 05:36:50;;;;;;;6.68;6.38;;;;;;;15.27;100.00;100511.13;6036025;23;20281;-70
2022/09/10 05:39:17;;;;;;;5.60;5.30;;;;;;;15.28;100.00;100518.13;6014956;23;20030;-70
2022/09/10 05:41:43;;;;;;;7.03;6.63;;;;;;;15.27;100.00;100511.97;5996551;23;20007;-71
2022/09/10 05:44:09;;;;;;;5.20;5.00;;;;;;;15.28;100.00;100513.66;5991447;23;20030;-71
2022/09/10 05:46:36;;;;;;;6.30;6.00;;;;;;;15.22;100.00;100497.44;6006643;23;20035;-69
2022/09/10 05:49:03;;;;;;;9.23;4.80;;;;;;;15.31;100.00;100510.78;6023678;23;20053;-71
2022/09/10 05:51:29;;;;;;;5.40;5.10;;;;;;;15.36;100.00;100516.56;6029428;23;20046;-71
2022/09/10 05:53:56;;;;;;;5.10;4.90;;;;;;;15.19;100.00;100497.66;6010254;23;20684;-70
2022/09/10 05:56:24;;;;;;;5.00;4.70;;;;;;;15.41;100.00;100515.38;6031288;23;20024;-70
2022/09/10 05:58:51;;;;;;;6.03;5.53;;;;;;;15.45;100.00;100522.13;6030392;23;20031;-70
2022/09/10 06:01:17;;;;;;;5.78;5.47;;;;;;;15.46;100.00;100519.38;6026943;23;20722;-71
2022/09/10 06:03:43;;;;;;;6.53;6.15;;;;;;;14.37;100.00;100337.22;6018661;23;20037;-70
2022/09/10 06:06:10;;;;;;;5.30;5.05;;;;;;;15.46;100.00;100508.78;6020785;23;20030;-70
2022/09/10 06:08:38;;;;;;;6.88;6.25;;;;;;;15.51;100.00;100524.31;6027952;23;20027;-70
2022/09/10 06:11:06;;;;;;;5.28;5.07;;;;;;;15.49;100.00;100527.06;5981578;23;20710;-71
2022/09/10 06:13:34;;;;;;;5.82;5.47;;;;;;;15.51;100.00;100548.94;6033730;23;20018;-71
2022/09/10 06:16:00;;;;;;;5.55;5.20;;;;;;;15.38;100.00;100519.13;6016304;23;20063;-72
2022/09/10 06:18:27;;;;;;;5.15;4.88;;;;;;;15.43;100.00;100551.31;5992328;23;20031;-70
2022/09/10 06:21:15;;;;;;;5.45;5.00;;;;;;;15.40;100.00;100537.50;6017668;23;20601;-71
2022/09/10 06:23:42;;;;;;;6.75;6.45;;;;;;;15.35;100.00;100538.72;6001937;23;20030;-72
2022/09/10 06:26:12;;;;;;;5.50;5.20;;;;;;;15.35;100.00;100538.72;6032959;23;20087;-71
2022/09/10 06:28:39;;;;;;;6.45;6.15;;;;;;;15.35;100.00;100541.34;6053924;23;20033;-71
2022/09/10 06:31:06;;;;;;;5.65;5.20;;;;;;;14.08;100.00;100344.66;6065365;23;20472;-70
2022/09/10 06:33:33;;;;;;;5.82;5.55;;;;;;;15.32;100.00;100546.84;6051725;23;20034;-71
2022/09/10 06:36:00;;;;;;;5.80;5.40;;;;;;;15.09;100.00;100508.91;6053300;23;20022;-70
2022/09/10 06:38:29;;;;;;;5.20;5.00;;;;;;;15.39;100.00;100549.03;6053121;23;20030;-71
2022/09/10 06:40:59;;;;;;;5.35;5.10;;;;;;;15.43;100.00;100547.84;6044553;23;20620;-70
2022/09/10 06:43:30;;;;;;;5.90;5.60;;;;;;;15.47;100.00;100552.78;6055062;23;20111;-71
2022/09/10 06:45:57;;;;;;;5.65;5.43;;;;;;;15.51;100.00;100546.31;6046376;23;20034;-71
2022/09/10 06:48:27;;;;;;;5.68;5.25;;;;;;;15.56;100.00;100546.81;6053287;23;20069;-70
2022/09/10 06:51:14;;;;;;;5.05;4.85;;;;;;;14.43;100.00;100363.16;6058459;23;20010;-70
2022/09/10 06:53:42;;;;;;;8.82;5.93;;;;;;;15.46;100.00;100523.84;6052575;23;20052;-71
2022/09/10 06:56:11;;;;;;;5.28;4.97;;;;;;;15.72;100.00;100550.94;6041175;23;20022;-71
2022/09/10 06:58:38;;;;;;;6.32;6.03;;;;;;;15.39;100.00;100489.06;6046822;23;20029;-73
2022/09/10 07:01:10;;;;;;;5.65;5.35;;;;;;;15.79;100.00;100568.06;6034760;23;20381;-71
2022/09/10 07:03:42;;;;;;;5.40;5.20;;;;;;;15.81;100.00;100554.72;6055996;23;20045;-71
2022/09/10 07:06:12;;;;;;;5.20;5.00;;;;;;;15.83;100.00;100553.63;6012935;23;20042;-71
2022/09/10 07:08:39;;;;;;;6.18;5.88;;;;;;;15.82;100.00;100553.78;6045285;23;20030;-71
2022/09/10 07:11:11;;;;;;;5.65;5.40;;;;;;;15.83;100.00;100552.78;6048313;23;20734;-70
2022/09/10 07:13:39;;;;;;;7.38;6.97;;;;;;;15.77;100.00;100563.84;6039443;23;20519;-72
2022/09/10 07:16:06;;;;;;;5.30;5.10;;;;;;;15.81;100.00;100557.38;6049744;23;20023;-70
2022/09/10 07:18:33;;;;;;;7.15;5.60;;;;;;;15.81;100.00;100554.72;6053760;23;20030;-71
2022/09/10 07:21:11;;;;;;;5.78;5.47;;;;;;;15.84;100.00;100560.63;6065334;23;20022;-70
2022/09/10 07:23:38;;;;;;;5.53;5.30;;;;;;;15.84;100.00;100557.97;6044280;23;20083;-70
2022/09/10 07:26:13;;;;;;;5.50;5.20;;;;;;;15.82;100.00;100562.53;6072250;23;20025;-71
2022/09/10 07:28:41;;;;;;;6.47;6.18;;;;;;;15.79;100.00;100562.75;6047078;23;20014;-70
2022/09/10 07:31:19;;;;;;;5.20;4.90;;;;;;;15.85;100.00;100561.47;6066880;23;20195;-70
2022/09/10 07:33:47;;;;;;;6.95;6.43;;;;;;;15.85;100.00;100567.59;6055816;23;20598;-70
2022/09/10 07:36:14;;;;;;;5.15;4.95;;;;;;;15.89;100.00;100563.75;6055997;23;20022;-71
2022/09/10 07:38:41;;;;;;;7.20;6.75;;;;;;;15.87;100.00;100565.66;6050319;23;20424;-70
2022/09/10 07:41:12;;;;;;;5.88;5.57;;;;;;;15.64;100.00;100530.34;6046875;23;20053;-71
2022/09/10 07:43:40;;;;;;;6.53;6.22;;;;;;;14.68;100.00;100359.59;6040405;23;20019;-70
2022/09/10 07:46:11;;;;;;;5.82;5.53;;;;;;;15.97;100.00;100565.81;6031022;23;20031;-70
2022/09/10 07:48:41;;;;;;;6.35;6.05;;;;;;;16.02;100.00;100563.66;6051912;23;20062;-72
2022/09/10 07:51:10;;;;;;;5.55;5.25;;;;;;;16.13;100.00;100565.47;6055333;23;20104;-71
2022/09/10 07:53:37;;;;;;;6.60;6.13;;;;;;;15.98;100.00;100530.44;6041427;23;20033;-72
2022/09/10 07:56:06;;;;;;;7.43;5.95;;;;;;;16.39;100.00;100560.78;6049562;23;20026;-72
2022/09/10 07:58:34;;;;;;;5.53;5.22;;;;;;;16.49;100.00;100563.53;6056108;23;20042;-70
2022/09/10 08:01:05;;;;;;;5.90;5.60;;;;;;;16.66;100.00;100560.41;6046798;23;20440;-71
2022/09/10 08:03:32;;;;;;;5.82;5.53;;;;;;;16.68;100.00;100544.38;6062724;23;20100;-71
2022/09/10 08:06:00;;;;;;;5.80;5.43;;;;;;;16.27;100.00;100467.25;6039007;23;20060;-71
2022/09/10 08:08:32;;;;;;;6.05;5.65;;;;;;;16.84;100.00;100566.06;6056364;23;20739;-69
2022/09/10 08:11:07;;;;;;;7.80;6.03;;;;;;;16.90;100.00;100568.22;6046560;23;20022;-72
2022/09/10 08:13:44;;;;;;;7.72;7.22;;;;;;;17.06;100.00;100566.94;6047155;23;20026;-72
2022/09/10 08:16:17;;;;;;;6.05;5.75;;;;;;;17.19;100.00;100542.94;6042809;23;20094;-70
2022/09/10 08:18:46;;;;;;;6.78;6.35;;;;;;;17.50;100.00;100560.66;6039371;23;20459;-71
2022/09/10 08:21:14;;;;;;;6.30;6.00;;;;;;;17.55;100.00;100573.53;6050266;23;20104;-71
2022/09/10 08:23:40;;;;;;;6.82;6.47;;;;;;;17.47;100.00;100576.81;6051237;23;20022;-71
2022/09/10 08:26:07;;;;;;;5.32;5.13;;;;;;;17.53;100.00;100597.53;6042194;23;20456;-71
2022/09/10 08:28:34;;;;;;;7.95;6.43;;;;;;;17.57;100.00;100573.41;6048453;23;20050;-71
2022/09/10 08:31:06;;;;;;;5.93;5.53;;;;;;;17.53;100.00;100576.28;6006921;23;20015;-72
2022/09/10 08:33:34;;;;;;;8.63;6.30;;;;;;;16.28;100.00;100392.16;6047366;23;20046;-71
2022/09/10 08:36:02;;;;;;;5.78;5.47;;;;;;;17.47;100.00;100579.47;6051203;23;20018;-72
2022/09/10 08:38:31;;;;;;;6.00;5.50;;;;;;;17.47;100.00;100578.63;6046795;23;20030;-72
2022/09/10 08:40:59;;;;;;;5.85;5.55;;;;;;;17.39;100.00;100566.00;6047831;23;20022;-70
2022/09/10 08:43:30;;;;;;;5.70;5.40;;;;;;;17.51;100.00;100561.47;6049414;23;20342;-71
2022/09/10 08:46:01;;;;;;;6.15;5.55;;;;;;;17.60;100.00;100563.38;6034076;23;20044;-73
2022/09/10 08:48:31;;;;;;;6.20;5.90;;;;;;;16.66;100.00;100387.34;6042531;23;20014;-70
2022/09/10 08:51:04;;;;;;;6.07;5.78;;;;;;;17.83;100.00;100569.41;6018823;23;20032;-71
2022/09/10 08:53:46;;;;;;;5.80;5.50;;;;;;;17.91;100.00;100566.94;6038778;23;20010;-70
2022/09/10 08:56:17;;;;;;;5.85;5.53;;;;;;;17.84;100.00;100571.13;6055449;23;20084;-72
2022/09/10 08:58:54;;;;;;;6.75;6.43;;;;;;;17.32;100.00;100493.22;6012016;23;20026;-71
2022/09/10 09:01:30;;;;;;;6.65;6.03;;;;;;;17.57;100.00;100573.41;6036940;23;20539;-71
2022/09/10 09:03:58;;;;;;;5.78;5.47;;;;;;;17.40;100.00;100574.78;6021622;23;20021;-71
2022/09/10 09:06:38;;;;;;;6.30;5.90;;;;;;;16.25;100.00;100404.78;6050910;23;20030;-71
2022/09/10 09:09:05;;;;;;;6.13;5.70;;;;;;;17.25;100.00;100585.69;6041957;23;20075;-70
2022/09/10 09:12:14;;;;;;;7.57;5.75;;;;;;;17.09;100.00;100569.38;6045457;23;20742;-70
2022/09/10 09:14:58;;;;;;;8.02;7.35;;;;;;;16.90;100.00;100580.63;5901329;24;20025;-71
2022/09/10 09:18:05;;;;;;;6.15;5.75;;;;;;;16.83;100.00;100587.38;6054672;23;20078;-72
2022/09/10 09:20:52;;;;;;;6.03;5.65;;;;;;;15.50;100.00;100395.69;6043432;23;20019;-72
2022/09/10 09:23:40;;;;;;;7.78;5.75;;;;;;;16.60;100.00;100576.78;6023123;23;20542;-69
2022/09/10 09:26:35;;;;;;;6.22;5.60;;;;;;;16.48;100.00;100554.75;6045884;23;20027;-70
2022/09/10 09:29:11;;;;;;;7.05;6.60;;;;;;;16.33;100.00;100559.44;6055734;23;20091;-70
2022/09/10 09:31:43;;;;;;;7.53;7.13;;;;;;;16.38;100.00;100592.66;6037291;23;20076;-71
2022/09/10 09:34:18;;;;;;;6.22;5.93;;;;;;;15.85;100.00;100496.13;6032523;23;20026;-71
2022/09/10 09:36:48;;;;;;;8.27;7.80;;;;;;;14.42;100.00;100226.00;6053172;23;20092;-71
2022/09/10 09:39:44;;;;;;;6.72;6.32;;;;;;;16.66;100.00;100592.19;6059967;23;20041;-71
2022/09/10 09:42:24;;;;;;;6.03;5.70;;;;;;;16.81;100.00;100582.19;6052040;23;20105;-70
2022/09/10 09:45:13;;;;;;;6.80;6.35;;;;;;;15.94;100.00;100437.22;6055400;23;20076;-70
2022/09/10 09:47:40;;;;;;;8.07;7.57;;;;;;;16.98;100.00;100585.28;6052201;23;20026;-70
2022/09/10 09:50:09;;;;;;;7.15;6.38;;;;;;;17.18;100.00;100575.72;6048343;23;20451;-71
2022/09/10 09:52:37;;;;;;;6.78;6.20;;;;;;;17.12;100.00;100555.88;6055617;23;20022;-72
2022/09/10 09:55:15;;;;;;;6.72;6.22;;;;;;;16.18;100.00;100363.88;6050252;23;20027;-71
2022/09/10 09:57:41;;;;;;;8.32;7.82;;;;;;;17.15;100.00;100553.78;6042710;23;20030;-72
2022/09/10 10:00:34;;;;;;;6.20;5.80;;;;;;;17.20;100.00;100566.69;6059417;23;20034;-71
2022/09/10 10:03:25;;;;;;;6.47;5.97;;;;;;;16.91;100.00;100569.88;6030119;23;20529;-71
2022/09/10 10:06:05;;;;;;;7.47;6.75;;;;;;;16.88;100.00;100562.19;6043189;23;20046;-72
2022/09/10 10:08:36;;;;;;;6.57;6.18;;;;;;;16.97;100.00;100565.06;6041683;23;20094;-71
2022/09/10 10:11:03;;;;;;;10.25;6.47;;;;;;;17.06;100.00;100565.16;6044003;23;20038;-71
2022/09/10 10:13:42;;;;;;;6.43;6.05;;;;;;;16.91;100.00;100564.59;6047107;23;20064;-72
2022/09/10 10:16:23;;;;;;;7.45;6.97;;;;;;;16.84;100.00;100573.16;6024176;23;20206;-70
2022/09/10 10:18:49;;;;;;;7.47;6.82;;;;;;;16.93;100.00;100564.47;6049840;23;20956;-70
2022/09/10 10:21:18;;;;;;;6.50;6.10;;;;;;;17.01;100.00;100564.69;6051474;23;20026;-70
2022/09/10 10:23:46;;;;;;;8.13;7.60;;;;;;;16.01;100.00;100373.19;6041585;23;20073;-70
2022/09/10 10:26:17;;;;;;;6.50;6.00;;;;;;;17.32;100.00;100567.50;6056879;23;20083;-69
2022/09/10 10:28:46;;;;;;;8.48;7.38;;;;;;;17.32;100.00;100568.31;6054332;23;20030;-71
2022/09/10 10:31:14;;;;;;;6.63;6.18;;;;;;;17.40;100.00;100565.03;6058952;23;20081;-71
2022/09/10 10:34:09;;;;;;;8.43;7.93;;;;;;;17.38;100.00;100553.72;6048768;23;20029;-70
2022/09/10 10:36:56;;;;;;;7.93;7.35;;;;;;;17.44;100.00;100574.44;6052202;23;20483;-70
2022/09/10 10:40:04;;;;;;;6.40;6.00;;;;;;;17.65;100.00;100549.72;6021290;23;20564;-70
2022/09/10 10:42:36;;;;;;;6.60;6.20;;;;;;;17.88;100.00;100546.00;6019750;23;20027;-69
2022/09/10 10:45:15;;;;;;;6.93;6.25;;;;;;;18.19;100.00;100542.50;6067080;23;20030;-70
2022/09/10 10:48:00;;;;;;;7.93;7.35;;;;;;;18.37;100.00;100550.69;6042383;23;20014;-70
2022/09/10 10:50:41;;;;;;;6.85;6.38;;;;;;;17.34;100.00;100399.28;6063634;23;20022;-69
2022/09/10 10:53:37;;;;;;;6.90;6.38;;;;;;;18.18;100.00;100554.94;6042554;23;20084;-69
2022/09/10 10:56:26;;;;;;;6.90;6.40;;;;;;;17.92;100.00;100560.69;6045234;23;20094;-69
2022/09/10 10:59:20;;;;;;;7.63;6.35;;;;;;;17.67;100.00;100569.84;6023087;23;20848;-70
2022/09/10 11:01:53;;;;;;;8.30;7.47;;;;;;;17.68;100.00;100565.34;6061156;23;20095;-70
2022/09/10 11:04:42;;;;;;;9.32;6.28;;;;;;;16.52;100.00;100417.63;6050712;23;20022;-70
2022/09/10 11:07:17;;;;;;;6.70;6.30;;;;;;;17.28;100.00;100566.91;6060264;23;20002;-70
2022/09/10 11:09:51;;;;;;;7.80;7.30;;;;;;;17.03;100.00;100573.34;6059691;23;20056;-70
2022/09/10 11:12:32;;;;;;;6.95;6.55;;;;;;;17.01;100.00;100566.50;6049586;23;20085;-70
2022/09/10 11:15:20;;;;;;;7.25;6.75;;;;;;;16.92;100.00;100563.63;6053783;23;20007;-69
2022/09/10 11:17:53;;;;;;;7.60;7.10;;;;;;;15.82;100.00;100392.34;6050549;23;20091;-70
2022/09/10 11:20:26;;;;;;;7.35;6.85;;;;;;;17.09;100.00;100564.91;6054885;23;20011;-69
2022/09/10 11:23:20;;;;;;;7.05;6.47;;;;;;;17.16;100.00;100573.22;6065808;23;20096;-70
2022/09/10 11:25:58;;;;;;;8.13;7.63;;;;;;;16.10;100.00;100385.69;6048759;23;20034;-70
2022/09/10 11:28:34;;;;;;;7.03;6.20;;;;;;;17.30;100.00;100562.31;6067959;23;20029;-69
2022/09/10 11:31:11;;;;;;;8.10;6.70;;;;;;;17.33;100.00;100563.84;6050587;23;20051;-71
2022/09/10 11:33:56;;;;;;;11.38;7.85;;;;;;;17.35;100.00;100544.19;6066033;23;20567;-69
2022/09/10 11:36:29;;;;;;;6.28;5.88;;;;;;;17.51;100.00;100570.28;6052873;23;20029;-69
2022/09/10 11:39:16;;;;;;;6.07;5.72;;;;;;;17.83;100.00;100565.91;6056935;23;20010;-69